Time;durP1;ratioP1;P1;durP2;ratioP2;P2;SDS_P1;SDS_P2;PMS_P1;PMS_P2;Temp;Humidity;BMP_temperature;BMP_pressure;BME280_temperature;BME280_humidity;BME280_pressure;Samples;Min_cycle;Max_cycle;Signal;HPM_P1;HPM_P2
2022/02/17 00:01:51;;;;;;;12.18;1.83;;;7.80;99.90;;;;;;6280213;22;20026;-91
2022/02/17 00:04:20;;;;;;;19.63;2.58;;;7.80;99.90;;;;;;6279661;22;20308;-92
2022/02/17 00:06:46;;;;;;;18.15;2.00;;;7.80;99.90;;;;;;6280159;22;20011;-91
2022/02/17 00:09:12;;;;;;;15.77;2.83;;;7.70;99.90;;;;;;6280200;22;20067;-91
2022/02/17 00:11:41;;;;;;;12.15;1.95;;;7.70;99.90;;;;;;6281065;22;20003;-90
2022/02/17 00:14:09;;;;;;;14.73;2.40;;;7.70;99.90;;;;;;6280810;22;20014;-90
2022/02/17 00:16:35;;;;;;;12.27;2.33;;;7.60;99.90;;;;;;6279739;22;20086;-91
2022/02/17 00:19:02;;;;;;;13.90;3.10;;;7.60;99.90;;;;;;6279405;22;20396;-92
2022/02/17 00:21:29;;;;;;;16.70;2.97;;;7.60;99.90;;;;;;6276952;22;20007;-91
2022/02/17 00:23:54;;;;;;;14.57;1.88;;;7.60;99.90;;;;;;6275736;22;20015;-91
2022/02/17 00:26:20;;;;;;;11.68;2.17;;;7.60;99.90;;;;;;6277924;22;20063;-90
2022/02/17 00:28:46;;;;;;;8.88;1.90;;;7.60;99.90;;;;;;6279410;22;20011;-90
2022/02/17 00:31:11;;;;;;;13.55;1.88;;;7.60;99.90;;;;;;6279402;22;20011;-90
2022/02/17 00:33:40;;;;;;;11.35;2.03;;;7.60;99.90;;;;;;6279718;22;20014;-90
2022/02/17 00:36:08;;;;;;;12.63;1.73;;;7.60;99.90;;;;;;6279608;22;20015;-95
2022/02/17 00:38:34;;;;;;;16.38;2.47;;;7.60;99.90;;;;;;6279948;22;20015;-92
2022/02/17 00:41:07;;;;;;;10.98;2.13;;;7.60;99.90;;;;;;6280711;22;20368;-93
2022/02/17 00:43:33;;;;;;;5.55;1.30;;;7.60;99.90;;;;;;6279951;22;20007;-93
2022/02/17 00:45:58;;;;;;;12.50;1.52;;;7.50;99.90;;;;;;6279453;22;20003;-93
2022/02/17 00:48:24;;;;;;;13.60;2.65;;;7.50;99.90;;;;;;6279433;22;20015;-92
2022/02/17 00:50:50;;;;;;;7.07;1.77;;;7.50;99.90;;;;;;6279702;22;20003;-92
2022/02/17 00:53:15;;;;;;;12.90;2.33;;;7.50;99.90;;;;;;6279356;22;20011;-92
2022/02/17 00:55:41;;;;;;;17.20;2.33;;;7.50;99.90;;;;;;6280731;22;20007;-92
2022/02/17 00:58:08;;;;;;;12.60;2.08;;;7.40;99.90;;;;;;6281514;22;20060;-91
2022/02/17 01:00:36;;;;;;;14.27;2.47;;;7.50;99.90;;;;;;6282811;22;20007;-92
2022/02/17 01:03:02;;;;;;;13.32;2.05;;;7.50;99.90;;;;;;6281775;22;20003;-92
2022/02/17 01:05:28;;;;;;;7.50;2.22;;;7.40;99.90;;;;;;6282301;22;20030;-92
2022/02/17 01:07:54;;;;;;;11.35;1.70;;;7.40;99.90;;;;;;6282136;22;20011;-92
2022/02/17 01:10:23;;;;;;;14.43;2.20;;;7.40;99.90;;;;;;6282263;22;20037;-91
2022/02/17 01:12:49;;;;;;;9.02;1.77;;;7.40;99.90;;;;;;6282037;22;20052;-91
2022/02/17 01:15:14;;;;;;;6.90;1.40;;;7.40;99.90;;;;;;6282142;22;20502;-92
2022/02/17 01:17:43;;;;;;;8.82;1.52;;;7.40;99.90;;;;;;6281945;22;20442;-91
2022/02/17 01:20:09;;;;;;;10.70;1.50;;;7.40;99.90;;;;;;6282576;22;20011;-91
2022/02/17 01:22:35;;;;;;;17.48;1.90;;;7.40;99.90;;;;;;6283256;22;20014;-91
2022/02/17 01:27:51;;;;;;;11.07;1.55;;;7.40;99.90;;;;;;6292970;22;20019;-91
2022/02/17 01:30:18;;;;;;;19.10;2.35;;;7.40;99.90;;;;;;6297215;22;20060;-91
2022/02/17 01:32:43;;;;;;;15.02;2.13;;;7.30;99.90;;;;;;6291733;22;20018;-93
2022/02/17 01:35:10;;;;;;;21.75;2.35;;;7.30;99.90;;;;;;6288263;22;20010;-90
2022/02/17 01:37:38;;;;;;;10.70;2.90;;;7.30;99.90;;;;;;6296322;22;20003;-90
2022/02/17 01:40:04;;;;;;;7.70;1.58;;;7.30;99.90;;;;;;6300146;22;20034;-92
2022/02/17 01:42:30;;;;;;;18.80;3.50;;;7.30;99.90;;;;;;6293660;22;20094;-90
2022/02/17 01:44:56;;;;;;;10.93;1.90;;;7.20;99.90;;;;;;6286802;22;20011;-91
2022/02/17 01:47:23;;;;;;;11.85;1.50;;;7.20;99.90;;;;;;6284834;22;20011;-92
2022/02/17 01:49:49;;;;;;;8.60;1.38;;;7.10;99.90;;;;;;6284735;22;20038;-89
2022/02/17 01:52:16;;;;;;;8.18;1.50;;;7.10;99.90;;;;;;6283055;22;20082;-90
2022/02/17 01:54:45;;;;;;;11.05;1.92;;;7.10;99.90;;;;;;6282766;22;20039;-89
2022/02/17 01:57:22;;;;;;;13.77;1.50;;;7.00;99.90;;;;;;6283048;22;20027;-89
2022/02/17 01:59:48;;;;;;;12.30;1.50;;;7.00;99.90;;;;;;6282630;22;20018;-91
2022/02/17 02:02:14;;;;;;;13.88;3.00;;;7.00;99.90;;;;;;6282810;22;20007;-89
2022/02/17 02:04:40;;;;;;;13.73;1.88;;;7.00;99.90;;;;;;6283531;22;20094;-90
2022/02/17 02:07:07;;;;;;;14.77;1.98;;;7.00;99.90;;;;;;6283271;22;20000;-90
2022/02/17 02:09:33;;;;;;;19.75;3.20;;;7.00;99.90;;;;;;6282614;22;20011;-91
2022/02/17 02:12:01;;;;;;;10.90;1.38;;;6.90;99.90;;;;;;6282782;22;20025;-90
2022/02/17 02:14:27;;;;;;;16.13;1.63;;;6.90;99.90;;;;;;6281979;22;20018;-91
2022/02/17 02:16:53;;;;;;;18.00;1.63;;;6.90;99.90;;;;;;6281718;22;20300;-90
2022/02/17 02:19:23;;;;;;;10.38;1.73;;;6.90;99.90;;;;;;6282475;22;20011;-91
2022/02/17 02:21:49;;;;;;;12.80;1.58;;;6.90;99.90;;;;;;6281431;22;20003;-90
2022/02/17 02:24:15;;;;;;;12.15;1.80;;;6.90;99.90;;;;;;6281447;22;20003;-90
2022/02/17 02:26:41;;;;;;;11.55;2.88;;;6.90;99.90;;;;;;6281895;22;20407;-90
2022/02/17 02:29:06;;;;;;;10.50;1.20;;;6.90;99.90;;;;;;6281438;22;20042;-89
2022/02/17 02:31:33;;;;;;;8.95;1.88;;;6.90;99.90;;;;;;6281294;22;20007;-90
2022/02/17 02:33:59;;;;;;;3.28;0.82;;;6.80;99.90;;;;;;6280916;22;19996;-90
2022/02/17 02:36:25;;;;;;;18.80;1.88;;;6.80;99.90;;;;;;6280956;22;20064;-90
2022/02/17 02:38:54;;;;;;;7.85;1.30;;;6.80;99.90;;;;;;6281180;22;20090;-90
2022/02/17 02:41:20;;;;;;;9.00;1.77;;;6.80;99.90;;;;;;6281618;22;20524;-91
2022/02/17 02:43:46;;;;;;;10.40;1.13;;;6.80;99.90;;;;;;6283313;22;20000;-90
2022/02/17 02:46:17;;;;;;;10.27;1.60;;;6.80;99.90;;;;;;6283910;22;20011;-90
2022/02/17 02:48:43;;;;;;;9.68;1.50;;;6.80;99.90;;;;;;6281616;22;20015;-90
2022/02/17 02:51:09;;;;;;;14.55;1.58;;;6.70;99.90;;;;;;6281140;22;20015;-91
2022/02/17 02:53:35;;;;;;;8.55;1.25;;;6.70;99.90;;;;;;6281076;22;20011;-91
2022/02/17 02:56:01;;;;;;;15.20;2.53;;;6.70;99.90;;;;;;6280927;22;20006;-91
2022/02/17 02:58:26;;;;;;;15.57;3.75;;;6.70;99.90;;;;;;6280962;22;20007;-90
2022/02/17 03:00:52;;;;;;;14.60;2.35;;;6.70;99.90;;;;;;6280543;22;20010;-89
2022/02/17 03:03:18;;;;;;;6.10;1.42;;;6.60;99.90;;;;;;6281196;22;20003;-89
2022/02/17 03:05:45;;;;;;;12.68;1.52;;;6.70;99.90;;;;;;6280779;22;20003;-89
2022/02/17 03:08:11;;;;;;;9.57;1.80;;;6.70;99.90;;;;;;6281042;22;20011;-91
2022/02/17 03:10:37;;;;;;;10.15;2.05;;;6.60;99.90;;;;;;6280614;22;20018;-91
2022/02/17 03:13:03;;;;;;;12.88;1.80;;;6.60;99.90;;;;;;6280428;22;20000;-91
2022/02/17 03:15:28;;;;;;;15.00;1.67;;;6.60;99.90;;;;;;6281056;22;20030;-91
2022/02/17 03:17:54;;;;;;;9.02;1.35;;;6.60;99.90;;;;;;6280601;22;19995;-91
2022/02/17 03:20:20;;;;;;;13.57;1.65;;;6.60;99.90;;;;;;6280895;22;20003;-91
2022/02/17 03:22:49;;;;;;;9.68;1.35;;;6.50;99.90;;;;;;6280926;22;20015;-92
2022/02/17 03:25:16;;;;;;;7.15;1.20;;;6.50;99.90;;;;;;6280567;22;20009;-92
2022/02/17 03:27:41;;;;;;;4.75;0.93;;;6.50;99.90;;;;;;6280314;22;20106;-91
2022/02/17 03:30:12;;;;;;;12.88;1.88;;;6.50;99.90;;;;;;6280124;22;20367;-91
2022/02/17 03:32:38;;;;;;;17.15;1.90;;;6.50;99.90;;;;;;6280364;22;20003;-90
2022/02/17 03:35:06;;;;;;;12.05;1.42;;;6.50;99.90;;;;;;6279209;22;20177;-91
2022/02/17 03:37:32;;;;;;;6.10;1.23;;;6.50;99.90;;;;;;6280206;22;20010;-92
2022/02/17 03:39:57;;;;;;;18.80;2.35;;;6.50;99.90;;;;;;6280214;22;20004;-90
2022/02/17 03:42:23;;;;;;;12.93;1.13;;;6.50;99.90;;;;;;6279620;22;20004;-89
2022/02/17 03:44:49;;;;;;;11.73;1.98;;;6.40;99.90;;;;;;6279812;22;20092;-90
2022/02/17 03:47:14;;;;;;;9.50;1.83;;;6.40;99.90;;;;;;6279509;22;20007;-90
2022/02/17 03:49:42;;;;;;;9.45;2.00;;;6.40;99.90;;;;;;6280060;22;20106;-90
2022/02/17 03:52:08;;;;;;;5.57;1.10;;;6.40;99.90;;;;;;6279731;22;19999;-90
2022/02/17 03:54:34;;;;;;;14.57;1.40;;;6.40;99.90;;;;;;6279902;22;20011;-90
2022/02/17 03:57:00;;;;;;;10.70;2.03;;;6.40;99.90;;;;;;6279972;22;19999;-91
2022/02/17 03:59:25;;;;;;;13.98;2.65;;;6.30;99.90;;;;;;6280957;22;20007;-92
2022/02/17 04:01:51;;;;;;;13.63;1.42;;;6.30;99.90;;;;;;6281472;22;20435;-92
2022/02/17 04:04:17;;;;;;;13.57;1.65;;;6.30;99.90;;;;;;6279697;22;20011;-90
2022/02/17 04:06:43;;;;;;;8.18;1.38;;;6.30;99.90;;;;;;6279481;22;20008;-91
2022/02/17 04:09:09;;;;;;;12.32;1.70;;;6.30;99.90;;;;;;6280000;22;20018;-91
2022/02/17 04:11:35;;;;;;;8.68;1.17;;;6.20;99.90;;;;;;6279923;22;20003;-92
2022/02/17 04:14:02;;;;;;;9.90;1.90;;;6.30;99.90;;;;;;6279956;22;20003;-92
2022/02/17 04:16:29;;;;;;;15.65;2.42;;;6.20;99.90;;;;;;6280332;22;20018;-92
2022/02/17 04:18:56;;;;;;;17.55;1.58;;;6.20;99.90;;;;;;6284145;22;20007;-92
2022/02/17 04:21:23;;;;;;;9.13;2.28;;;6.20;99.90;;;;;;6284044;22;20003;-91
2022/02/17 04:23:49;;;;;;;13.55;1.55;;;6.20;99.90;;;;;;6282703;22;20015;-92
2022/02/17 04:26:17;;;;;;;9.18;1.80;;;6.30;99.90;;;;;;6282855;22;20007;-92
2022/02/17 04:28:44;;;;;;;8.43;1.40;;;6.30;99.90;;;;;;6281687;22;20169;-91
2022/02/17 04:31:11;;;;;;;11.38;2.17;;;6.30;99.90;;;;;;6281106;22;20377;-91
2022/02/17 04:33:41;;;;;;;16.77;3.33;;;6.20;99.90;;;;;;6281144;22;20007;-91
2022/02/17 04:36:07;;;;;;;15.35;1.42;;;6.30;99.90;;;;;;6280420;22;20022;-91
2022/02/17 04:38:33;;;;;;;15.80;1.60;;;6.30;99.90;;;;;;6280715;22;20086;-91
2022/02/17 04:43:44;;;;;;;19.38;1.70;;;6.20;99.90;;;;;;6309079;22;20077;-92
2022/02/17 04:46:11;;;;;;;5.90;0.80;;;6.30;99.90;;;;;;6281330;22;20007;-92
2022/02/17 04:48:37;;;;;;;12.82;2.08;;;6.20;99.90;;;;;;6281406;22;20019;-91
2022/02/17 04:51:03;;;;;;;12.05;1.35;;;6.30;99.90;;;;;;6281299;22;20003;-91
2022/02/17 04:53:29;;;;;;;20.75;2.38;;;6.30;99.90;;;;;;6281078;22;20007;-91
2022/02/17 04:55:55;;;;;;;9.20;1.50;;;6.30;99.90;;;;;;6279974;22;20049;-92
2022/02/17 04:58:23;;;;;;;13.18;1.92;;;6.30;99.90;;;;;;6279885;22;20052;-91
2022/02/17 05:00:49;;;;;;;8.77;1.80;;;6.20;99.90;;;;;;6279682;22;20056;-90
2022/02/17 05:03:24;;;;;;;12.98;1.90;;;6.20;99.90;;;;;;6279488;22;20007;-91
2022/02/17 05:05:54;;;;;;;16.13;1.77;;;6.30;99.90;;;;;;6279853;22;20000;-91
2022/02/17 05:08:20;;;;;;;8.38;1.30;;;6.30;99.90;;;;;;6279527;22;20007;-91
2022/02/17 05:10:48;;;;;;;17.23;1.92;;;6.30;99.90;;;;;;6279423;22;20015;-90
2022/02/17 05:13:14;;;;;;;11.50;1.40;;;6.30;99.90;;;;;;6279919;22;20004;-91
2022/02/17 05:15:40;;;;;;;13.57;1.60;;;6.30;99.90;;;;;;6279733;22;20470;-90
2022/02/17 05:18:06;;;;;;;8.40;1.38;;;6.30;99.90;;;;;;6283782;22;20091;-90
2022/02/17 05:20:32;;;;;;;3.35;0.70;;;6.30;99.90;;;;;;6280480;22;20335;-90
2022/02/17 05:22:58;;;;;;;12.45;2.00;;;6.20;99.90;;;;;;6280365;22;19999;-90
2022/02/17 05:25:24;;;;;;;12.73;1.90;;;6.30;99.90;;;;;;6279568;22;20367;-91
2022/02/17 05:27:50;;;;;;;12.45;1.42;;;6.20;99.90;;;;;;6280238;22;20041;-91
2022/02/17 05:30:16;;;;;;;16.02;2.20;;;6.30;99.90;;;;;;6279926;22;20007;-92
2022/02/17 05:32:43;;;;;;;8.48;1.30;;;6.30;99.90;;;;;;6279695;22;20007;-91
2022/02/17 05:35:10;;;;;;;13.25;2.30;;;6.30;99.90;;;;;;6279126;22;20003;-91
2022/02/17 05:37:40;;;;;;;10.75;1.52;;;6.30;99.90;;;;;;6280151;22;20012;-92
2022/02/17 05:40:08;;;;;;;11.23;1.77;;;6.30;99.90;;;;;;6280066;22;19999;-92
2022/02/17 05:42:35;;;;;;;12.32;1.70;;;6.20;99.90;;;;;;6282305;22;19999;-90
2022/02/17 05:45:01;;;;;;;20.08;3.40;;;6.20;99.90;;;;;;6281605;22;20094;-91
2022/02/17 05:47:26;;;;;;;6.43;1.30;;;6.20;99.90;;;;;;6285136;22;20197;-92
2022/02/17 05:49:52;;;;;;;15.38;1.60;;;6.30;99.90;;;;;;6286055;22;20010;-90
2022/02/17 05:52:18;;;;;;;18.48;4.25;;;6.30;99.90;;;;;;6288054;22;19999;-92
2022/02/17 05:54:44;;;;;;;9.73;1.45;;;6.30;99.90;;;;;;6281425;22;20021;-90
2022/02/17 05:57:10;;;;;;;14.50;1.80;;;6.30;99.90;;;;;;6281742;22;20114;-93
2022/02/17 05:59:42;;;;;;;19.15;1.88;;;6.30;99.90;;;;;;6281804;22;20434;-90
2022/02/17 06:02:07;;;;;;;8.32;2.00;;;6.30;99.90;;;;;;6281608;22;20014;-89
2022/02/17 06:04:33;;;;;;;11.05;1.48;;;6.20;99.90;;;;;;6281522;22;20423;-90
2022/02/17 06:06:59;;;;;;;10.52;1.67;;;6.20;99.90;;;;;;6281275;22;20003;-92
2022/02/17 06:09:24;;;;;;;8.23;1.80;;;6.20;99.90;;;;;;6280976;22;20336;-89
2022/02/17 06:11:50;;;;;;;8.23;1.08;;;6.20;99.90;;;;;;6281219;22;20003;-91
2022/02/17 06:14:16;;;;;;;12.85;1.75;;;6.20;99.90;;;;;;6281213;22;20403;-91
2022/02/17 06:16:41;;;;;;;18.15;1.77;;;6.30;99.90;;;;;;6281137;22;20007;-91
2022/02/17 06:19:07;;;;;;;8.73;1.60;;;6.30;99.90;;;;;;6281451;22;20003;-93
2022/02/17 06:21:33;;;;;;;15.60;1.60;;;6.20;99.90;;;;;;6281526;22;20275;-91
2022/02/17 06:23:59;;;;;;;12.35;1.52;;;6.20;99.90;;;;;;6281738;22;20015;-92
2022/02/17 06:26:25;;;;;;;8.25;1.45;;;6.20;99.90;;;;;;6281085;22;20027;-91
2022/02/17 06:28:50;;;;;;;12.45;2.00;;;6.20;99.90;;;;;;6281372;22;20039;-89
2022/02/17 06:31:18;;;;;;;19.20;1.85;;;6.20;99.90;;;;;;6308546;22;20003;-91
2022/02/17 06:33:44;;;;;;;8.65;1.85;;;6.20;99.90;;;;;;6281022;22;20011;-92
2022/02/17 06:36:15;;;;;;;9.20;1.90;;;6.20;99.90;;;;;;6280427;22;20080;-91
2022/02/17 06:38:41;;;;;;;;;;;6.20;99.90;;;;;;6280934;22;20014;-92
2022/02/17 06:41:07;;;;;;;15.88;2.83;;;6.20;99.90;;;;;;6281505;22;19907;-92
2022/02/17 06:43:35;;;;;;;17.35;1.80;;;6.20;99.90;;;;;;6281303;22;20090;-92
2022/02/17 06:46:00;;;;;;;11.88;1.60;;;6.10;99.90;;;;;;6281321;22;20025;-92
2022/02/17 06:48:26;;;;;;;15.68;2.35;;;6.10;99.90;;;;;;6280669;22;20015;-93
2022/02/17 06:50:52;;;;;;;17.63;1.83;;;6.20;99.90;;;;;;6280951;22;20760;-92
2022/02/17 06:53:18;;;;;;;13.90;1.85;;;6.10;99.90;;;;;;6280861;22;20011;-90
2022/02/17 06:55:45;;;;;;;12.80;1.88;;;6.10;99.90;;;;;;6280260;22;20024;-91
2022/02/17 06:58:11;;;;;;;11.57;1.40;;;6.10;99.90;;;;;;6280158;22;20007;-92
2022/02/17 07:00:36;;;;;;;11.10;1.65;;;6.10;99.90;;;;;;6280029;22;20098;-91
2022/02/17 07:03:06;;;;;;;14.40;2.13;;;6.10;99.90;;;;;;6280493;22;20058;-91
2022/02/17 07:05:33;;;;;;;13.38;1.67;;;6.10;99.90;;;;;;6280692;22;20007;-91
2022/02/17 07:07:58;;;;;;;16.30;1.73;;;6.10;99.90;;;;;;6307748;22;20003;-91
2022/02/17 07:13:10;;;;;;;20.73;2.38;;;6.10;99.90;;;;;;6304643;22;20011;-91
2022/02/17 07:15:36;;;;;;;15.13;2.40;;;6.10;99.90;;;;;;6279606;22;20011;-93
2022/02/17 07:18:07;;;;;;;14.15;1.98;;;6.10;99.90;;;;;;6279991;22;20433;-91
2022/02/17 07:20:35;;;;;;;13.27;2.50;;;6.10;99.90;;;;;;6279118;22;20096;-92
2022/02/17 07:23:02;;;;;;;12.40;1.77;;;6.00;99.90;;;;;;6279681;22;20065;-90
2022/02/17 07:25:28;;;;;;;8.27;1.65;;;5.80;99.90;;;;;;6279802;22;20003;-91
2022/02/17 07:27:54;;;;;;;12.45;1.70;;;5.70;99.90;;;;;;6280022;22;20102;-90
2022/02/17 07:30:20;;;;;;;14.35;1.30;;;5.60;99.90;;;;;;6279133;22;20023;-91
2022/02/17 07:32:46;;;;;;;13.45;1.65;;;5.50;99.90;;;;;;6280039;22;20015;-91
2022/02/17 07:35:12;;;;;;;6.97;1.35;;;5.40;99.90;;;;;;6279169;22;20007;-92
2022/02/17 07:37:39;;;;;;;10.43;1.17;;;5.40;99.90;;;;;;6306366;22;20009;-91
2022/02/17 07:40:07;;;;;;;10.38;2.17;;;5.40;99.90;;;;;;6280084;22;20007;-92
2022/02/17 07:42:33;;;;;;;18.65;2.08;;;5.40;99.90;;;;;;6279809;22;20008;-92
2022/02/17 07:45:00;;;;;;;13.65;1.40;;;5.40;99.90;;;;;;6279660;22;19999;-91
2022/02/17 07:47:26;;;;;;;9.88;1.67;;;5.40;99.90;;;;;;6280499;22;20030;-93
2022/02/17 07:49:57;;;;;;;16.58;1.83;;;5.40;99.90;;;;;;6280161;22;20067;-92
2022/02/17 07:52:26;;;;;;;8.55;1.15;;;5.30;99.90;;;;;;6280034;22;20007;-92
2022/02/17 07:54:52;;;;;;;8.02;1.42;;;5.30;99.90;;;;;;6279258;22;20018;-92
2022/02/17 07:57:19;;;;;;;6.07;1.08;;;5.20;99.90;;;;;;6281161;22;20488;-93
2022/02/17 07:59:45;;;;;;;9.38;1.88;;;5.20;99.90;;;;;;6278855;22;20015;-92
2022/02/17 08:02:12;;;;;;;8.77;1.15;;;5.20;99.90;;;;;;6279844;22;20030;-92
2022/02/17 08:04:38;;;;;;;7.05;1.10;;;5.20;99.90;;;;;;6279737;22;20090;-91
2022/02/17 08:07:06;;;;;;;8.75;1.40;;;5.20;99.90;;;;;;6278138;22;20026;-91
2022/02/17 08:09:32;;;;;;;13.02;1.83;;;5.20;99.90;;;;;;6279981;22;20019;-91
2022/02/17 08:11:58;;;;;;;17.00;1.73;;;5.20;99.90;;;;;;6279494;22;20038;-92
2022/02/17 08:14:23;;;;;;;11.30;2.05;;;5.30;99.90;;;;;;6279557;22;20385;-92
2022/02/17 08:16:49;;;;;;;6.55;0.70;;;5.30;99.90;;;;;;6279431;22;20007;-91
2022/02/17 08:19:15;;;;;;;11.38;2.17;;;5.30;99.90;;;;;;6279419;22;20000;-89
2022/02/17 08:21:42;;;;;;;20.98;3.10;;;5.30;99.90;;;;;;6279014;22;20015;-91
2022/02/17 08:24:10;;;;;;;8.90;2.13;;;5.40;99.90;;;;;;6279060;22;20096;-90
2022/02/17 08:26:37;;;;;;;9.70;1.85;;;5.40;99.90;;;;;;6279660;22;20003;-90
2022/02/17 08:29:02;;;;;;;13.02;1.52;;;5.40;99.90;;;;;;6278784;22;20098;-90
2022/02/17 08:31:29;;;;;;;11.15;1.80;;;5.40;99.90;;;;;;6276732;22;20023;-92
2022/02/17 08:33:55;;;;;;;15.48;2.30;;;5.50;99.90;;;;;;6279291;22;20600;-91
2022/02/17 08:36:21;;;;;;;17.75;1.58;;;5.40;99.90;;;;;;6279373;22;20011;-91
2022/02/17 08:38:47;;;;;;;12.85;1.42;;;5.40;99.90;;;;;;6280264;22;20011;-91
2022/02/17 08:41:15;;;;;;;8.93;1.50;;;5.50;99.90;;;;;;6280708;22;20052;-90
2022/02/17 08:43:41;;;;;;;7.88;1.40;;;5.50;99.90;;;;;;6280111;22;20017;-90
2022/02/17 08:46:07;;;;;;;8.55;1.83;;;5.60;99.90;;;;;;6280261;22;20011;-91
2022/02/17 08:48:33;;;;;;;9.70;1.38;;;5.60;99.90;;;;;;6279201;22;20038;-91
2022/02/17 08:50:58;;;;;;;6.90;1.08;;;5.60;99.90;;;;;;6280162;22;20310;-90
2022/02/17 08:53:25;;;;;;;9.27;1.33;;;5.70;99.90;;;;;;6280498;22;20011;-91
2022/02/17 08:55:50;;;;;;;11.32;1.88;;;5.70;99.90;;;;;;6279999;22;20003;-91
2022/02/17 08:58:16;;;;;;;7.40;1.38;;;5.80;99.90;;;;;;6277753;22;20148;-90
2022/02/17 09:00:42;;;;;;;5.35;1.13;;;5.80;99.90;;;;;;6280458;22;20011;-91
2022/02/17 09:03:11;;;;;;;11.65;1.38;;;5.80;99.90;;;;;;6280538;22;19995;-89
2022/02/17 09:05:38;;;;;;;14.93;1.52;;;5.80;99.90;;;;;;6280256;22;20039;-90
2022/02/17 09:08:04;;;;;;;14.68;1.73;;;5.80;99.90;;;;;;6279566;22;20016;-90
2022/02/17 09:10:30;;;;;;;13.88;1.60;;;5.90;99.90;;;;;;6280784;22;20082;-90
2022/02/17 09:12:56;;;;;;;9.40;2.33;;;5.90;99.90;;;;;;6280637;22;20027;-90
2022/02/17 09:15:22;;;;;;;15.85;1.63;;;6.00;99.90;;;;;;6280170;22;20045;-90
2022/02/17 09:17:48;;;;;;;14.00;1.52;;;6.00;99.90;;;;;;6281987;22;20442;-90
2022/02/17 09:20:15;;;;;;;7.78;1.17;;;6.00;99.90;;;;;;6282459;22;20011;-92
2022/02/17 09:22:44;;;;;;;17.48;1.38;;;6.00;99.90;;;;;;6282266;22;20018;-91
2022/02/17 09:25:11;;;;;;;11.85;1.20;;;6.00;99.90;;;;;;6282351;22;20010;-91
2022/02/17 09:27:37;;;;;;;10.20;1.73;;;6.10;99.90;;;;;;6281932;22;20414;-91
2022/02/17 09:30:05;;;;;;;6.18;1.50;;;6.20;99.90;;;;;;6282014;22;20003;-91
2022/02/17 09:32:30;;;;;;;9.88;1.40;;;6.30;99.90;;;;;;6282006;22;20004;-91
2022/02/17 09:34:56;;;;;;;9.93;2.08;;;6.40;99.90;;;;;;6281938;22;20015;-91
2022/02/17 09:37:22;;;;;;;6.97;1.30;;;6.40;99.90;;;;;;6281814;22;20098;-92
2022/02/17 09:39:48;;;;;;;9.05;1.85;;;6.40;99.90;;;;;;6282045;22;20045;-91
2022/02/17 09:42:15;;;;;;;14.75;1.40;;;6.30;99.90;;;;;;6282146;22;20007;-91
2022/02/17 09:44:41;;;;;;;6.40;1.20;;;6.40;99.90;;;;;;6282109;22;20007;-92
2022/02/17 09:47:10;;;;;;;6.95;2.17;;;6.30;99.90;;;;;;6283567;22;20014;-92
2022/02/17 09:49:38;;;;;;;9.35;2.25;;;6.30;99.90;;;;;;6287327;22;20019;-91
2022/02/17 09:52:05;;;;;;;12.85;1.50;;;6.20;99.90;;;;;;6283944;22;19999;-92
2022/02/17 09:54:31;;;;;;;10.20;1.25;;;6.10;99.90;;;;;;6290890;22;20094;-89
2022/02/17 09:56:57;;;;;;;4.47;0.80;;;6.20;99.90;;;;;;6287602;22;20003;-88
2022/02/17 09:59:25;;;;;;;14.65;1.55;;;6.20;99.90;;;;;;6281178;22;20753;-91
2022/02/17 10:02:03;;;;;;;8.55;1.50;;;6.20;99.90;;;;;;6280483;22;20003;-88
2022/02/17 10:04:30;;;;;;;9.57;1.30;;;6.40;99.90;;;;;;6280775;22;20442;-87
2022/02/17 10:06:59;;;;;;;11.23;1.20;;;6.60;99.90;;;;;;6281058;22;19999;-91
2022/02/17 10:09:42;;;;;;;11.32;1.60;;;6.70;99.90;;;;;;6281093;22;20050;-90
2022/02/17 10:12:10;;;;;;;9.52;1.33;;;6.80;99.90;;;;;;6308296;22;20000;-91
2022/02/17 10:14:36;;;;;;;5.20;1.02;;;6.90;99.90;;;;;;6281204;22;20376;-91
2022/02/17 10:17:06;;;;;;;7.00;0.75;;;6.90;99.90;;;;;;6281846;22;20339;-91
2022/02/17 10:19:49;;;;;;;12.37;1.70;;;6.90;99.90;;;;;;6281308;22;20011;-90
2022/02/17 10:22:17;;;;;;;11.10;1.40;;;6.80;99.90;;;;;;6281442;22;20003;-91
2022/02/17 10:24:48;;;;;;;12.77;1.60;;;6.70;99.90;;;;;;6281793;22;20039;-90
2022/02/17 10:27:14;;;;;;;;;;;6.60;99.90;;;;;;6281069;22;20000;-90
2022/02/17 10:30:08;;;;;;;5.82;1.90;;;6.60;99.90;;;;;;6280738;22;19919;-90
2022/02/17 10:32:35;;;;;;;9.38;1.90;;;6.50;99.90;;;;;;6308244;22;19999;-90
2022/02/17 10:35:06;;;;;;;8.35;1.25;;;6.50;99.90;;;;;;6281591;22;19999;-90
2022/02/17 10:37:59;;;;;;;8.30;1.20;;;6.40;99.90;;;;;;6280850;22;20026;-90
2022/02/17 10:40:30;;;;;;;9.60;1.60;;;6.40;99.90;;;;;;6281415;22;20057;-90
2022/02/17 10:43:04;;;;;;;13.70;1.90;;;6.40;99.90;;;;;;6280978;22;20015;-90
2022/02/17 10:45:31;;;;;;;10.90;1.20;;;6.30;99.90;;;;;;6280313;22;20136;-90
2022/02/17 10:48:15;;;;;;;9.13;1.80;;;6.30;99.90;;;;;;6280349;22;20602;-91
2022/02/17 10:50:42;;;;;;;11.48;1.42;;;6.20;99.90;;;;;;6280794;22;20007;-90
2022/02/17 10:53:18;;;;;;;11.93;1.52;;;6.10;99.90;;;;;;6280539;22;20102;-90
2022/02/17 10:55:55;;;;;;;8.32;1.58;;;5.90;99.90;;;;;;6279691;22;20430;-89
2022/02/17 10:58:27;;;;;;;13.68;2.25;;;5.80;99.90;;;;;;6280020;22;20086;-92
2022/02/17 11:00:57;;;;;;;7.05;2.22;;;5.80;99.90;;;;;;6281661;22;19999;-91
2022/02/17 11:03:24;;;;;;;6.60;2.00;;;5.80;99.90;;;;;;6281503;22;20019;-91
2022/02/17 11:05:50;;;;;;;18.02;2.22;;;5.90;99.90;;;;;;6281106;22;20052;-91
2022/02/17 11:08:17;;;;;;;9.48;1.50;;;6.00;99.90;;;;;;6280428;22;20753;-90
2022/02/17 11:10:43;;;;;;;15.57;2.38;;;6.10;99.90;;;;;;6280631;22;20014;-91
2022/02/17 11:13:12;;;;;;;7.95;2.08;;;6.10;99.90;;;;;;6280789;22;20004;-91
2022/02/17 11:15:44;;;;;;;9.82;1.60;;;6.10;99.90;;;;;;6279639;22;20007;-90
2022/02/17 11:18:11;;;;;;;11.93;1.80;;;6.20;99.90;;;;;;6279566;22;20030;-91
2022/02/17 11:20:38;;;;;;;13.00;1.90;;;6.20;99.90;;;;;;6280162;22;19999;-89
2022/02/17 11:23:05;;;;;;;24.58;2.03;;;6.30;99.90;;;;;;6279342;22;20007;-91
2022/02/17 11:25:34;;;;;;;18.45;2.25;;;6.40;99.90;;;;;;6280060;22;20007;-91
2022/02/17 11:28:09;;;;;;;27.10;4.25;;;6.50;99.90;;;;;;6279310;22;20015;-91
2022/02/17 11:30:36;;;;;;;10.45;1.63;;;6.70;99.90;;;;;;6279832;22;20003;-91
2022/02/17 11:33:30;;;;;;;13.20;2.08;;;6.80;99.90;;;;;;6279539;22;20053;-90
2022/02/17 11:36:17;;;;;;;15.13;2.95;;;6.90;99.90;;;;;;6279129;22;20033;-91
2022/02/17 11:38:49;;;;;;;4.13;1.30;;;6.90;99.90;;;;;;6280323;22;20025;-92
2022/02/17 11:41:17;;;;;;;18.73;2.20;;;6.90;99.90;;;;;;6280843;22;20422;-91
2022/02/17 11:43:45;;;;;;;13.95;2.72;;;6.90;99.90;;;;;;6279751;22;20003;-93
2022/02/17 11:46:14;;;;;;;7.78;2.05;;;6.90;99.90;;;;;;6281106;22;20423;-92
2022/02/17 11:48:42;;;;;;;15.57;2.53;;;6.80;99.90;;;;;;6280552;22;20015;-92
2022/02/17 11:51:15;;;;;;;15.85;2.30;;;6.80;99.90;;;;;;6280459;22;20006;-93
2022/02/17 11:53:42;;;;;;;9.25;1.50;;;6.60;99.90;;;;;;6281041;22;20018;-94
2022/02/17 11:56:15;;;;;;;4.15;1.33;;;6.50;99.90;;;;;;6280968;22;20045;-92
2022/02/17 11:58:41;;;;;;;15.05;1.80;;;6.30;99.90;;;;;;6280785;22;20007;-92
2022/02/17 12:01:33;;;;;;;18.98;2.28;;;6.20;99.90;;;;;;6280523;22;20021;-92
2022/02/17 12:04:02;;;;;;;12.48;1.63;;;6.10;99.90;;;;;;6270929;22;20003;-93
2022/02/17 12:06:32;;;;;;;17.27;2.42;;;6.20;99.90;;;;;;6279489;22;20008;-93
2022/02/17 12:08:59;;;;;;;18.80;2.53;;;6.20;99.90;;;;;;6279725;22;20038;-92
2022/02/17 12:11:27;;;;;;;11.95;2.10;;;6.20;99.90;;;;;;6279580;22;20007;-91
2022/02/17 12:13:53;;;;;;;14.48;1.88;;;6.30;99.90;;;;;;6280608;22;20007;-92
2022/02/17 12:16:41;;;;;;;15.20;2.63;;;6.40;99.90;;;;;;6280566;22;20056;-92
2022/02/17 12:19:08;;;;;;;21.80;2.88;;;6.50;99.90;;;;;;6280884;22;20003;-93
2022/02/17 12:21:36;;;;;;;18.08;2.33;;;6.60;99.90;;;;;;6280023;22;20029;-92
2022/02/17 12:24:02;;;;;;;18.05;2.15;;;6.70;99.90;;;;;;6253844;22;20004;-91
2022/02/17 12:26:39;;;;;;;35.15;4.57;;;6.80;99.90;;;;;;6280719;22;20101;-91
2022/02/17 12:31:37;;;;;;;13.20;1.88;;;7.00;99.90;;;;;;6228691;22;19995;-91
2022/02/17 12:34:04;;;;;;;18.02;2.72;;;7.00;99.90;;;;;;6284608;22;20090;-91
2022/02/17 12:36:36;;;;;;;19.63;2.50;;;7.10;99.90;;;;;;6292338;22;20064;-92
2022/02/17 12:39:06;;;;;;;19.73;2.95;;;7.10;99.90;;;;;;6284445;22;20018;-91
2022/02/17 12:41:32;;;;;;;20.52;2.60;;;7.20;99.90;;;;;;6280439;22;20007;-93
2022/02/17 12:43:57;;;;;;;24.67;3.20;;;7.20;99.90;;;;;;6280472;22;20014;-91
2022/02/17 12:46:24;;;;;;;20.27;3.75;;;7.20;99.90;;;;;;6280884;22;20003;-91
2022/02/17 12:48:50;;;;;;;22.25;2.17;;;7.20;99.90;;;;;;6280814;22;20035;-90
2022/02/17 12:51:30;;;;;;;15.43;1.67;;;7.30;99.90;;;;;;6282190;22;20059;-91
2022/02/17 12:53:57;;;;;;;17.48;1.92;;;7.40;99.90;;;;;;6288744;22;20044;-91
2022/02/17 12:56:26;;;;;;;15.23;1.85;;;7.60;99.90;;;;;;6290872;22;20019;-91
2022/02/17 12:58:52;;;;;;;19.75;2.53;;;7.90;99.90;;;;;;6292381;22;20030;-91
2022/02/17 13:01:25;;;;;;;13.13;2.45;;;8.30;99.90;;;;;;6289056;22;20007;-90
2022/02/17 13:03:51;;;;;;;12.02;2.53;;;8.70;99.90;;;;;;6282849;22;20003;-92